createdAt,value
2019-03-29T00:01:40.096Z,9.20
2019-03-29T00:04:08.513Z,9.20
2019-03-29T00:06:37.311Z,9.20
2019-03-29T00:09:07.102Z,9.30
2019-03-29T00:11:35.864Z,9.20
2019-03-29T00:14:04.318Z,9.20
2019-03-29T00:16:32.746Z,9.10
2019-03-29T00:19:01.345Z,9.20
2019-03-29T00:21:30.420Z,9.20
2019-03-29T00:24:06.735Z,9.10
2019-03-29T00:26:28.961Z,9.20
2019-03-29T00:28:57.327Z,9.10
2019-03-29T00:31:25.653Z,9.10
2019-03-29T00:33:54.048Z,9.10
2019-03-29T00:36:22.439Z,9.00
2019-03-29T00:38:50.806Z,9.00
2019-03-29T00:41:19.198Z,9.00
2019-03-29T00:43:47.587Z,9.00
2019-03-29T00:46:15.992Z,9.10
2019-03-29T00:48:44.335Z,9.10
2019-03-29T00:51:12.681Z,9.10
2019-03-29T00:53:41.091Z,9.10
2019-03-29T00:56:09.460Z,9.10
2019-03-29T00:58:37.814Z,9.10
2019-03-29T01:01:06.237Z,9.00
2019-03-29T01:03:34.564Z,9.00
2019-03-29T01:06:03.028Z,9.00
2019-03-29T01:08:31.442Z,9.00
2019-03-29T01:10:59.763Z,9.00
2019-03-29T01:13:28.163Z,9.00
2019-03-29T01:15:56.501Z,9.00
2019-03-29T01:18:24.871Z,9.00
2019-03-29T01:20:53.255Z,9.00
2019-03-29T01:23:21.576Z,8.90
2019-03-29T01:25:51.030Z,9.00
2019-03-29T01:28:19.435Z,8.90
2019-03-29T01:30:48.260Z,8.90
2019-03-29T01:33:17.333Z,8.90
2019-03-29T01:35:45.731Z,8.90
2019-03-29T01:38:21.672Z,8.80
2019-03-29T01:40:44.306Z,8.80
2019-03-29T01:43:12.699Z,8.90
2019-03-29T01:45:41.077Z,8.80
2019-03-29T01:48:09.657Z,8.80
2019-03-29T01:50:38.011Z,8.90
2019-03-29T01:53:06.352Z,8.80
2019-03-29T01:55:34.753Z,8.80
2019-03-29T01:58:03.100Z,8.80
2019-03-29T02:00:32.929Z,8.70
2019-03-29T02:03:01.618Z,8.70
2019-03-29T02:05:30.091Z,8.70
2019-03-29T02:07:58.451Z,8.70
2019-03-29T02:10:26.848Z,8.60
2019-03-29T02:12:55.175Z,8.60
2019-03-29T02:15:23.613Z,8.60
2019-03-29T02:17:52.053Z,8.60
2019-03-29T02:20:20.400Z,8.50
2019-03-29T02:22:48.724Z,8.60
2019-03-29T02:25:17.102Z,8.50
2019-03-29T02:27:45.470Z,8.50
2019-03-29T02:30:14.205Z,8.50
2019-03-29T02:32:42.562Z,8.50
2019-03-29T02:35:11.623Z,8.40
2019-03-29T02:37:40.303Z,8.40
2019-03-29T02:40:08.870Z,8.50
2019-03-29T02:42:37.235Z,8.40
2019-03-29T02:45:06.243Z,8.40
2019-03-29T02:47:34.580Z,8.40
2019-03-29T02:50:03.032Z,8.40
2019-03-29T02:52:31.450Z,8.30
2019-03-29T02:54:59.801Z,8.20
2019-03-29T02:57:28.156Z,8.20
2019-03-29T02:59:56.557Z,8.10
2019-03-29T03:02:26.599Z,8.20
2019-03-29T03:04:55.047Z,8.10
2019-03-29T03:07:23.449Z,8.10
2019-03-29T03:09:51.812Z,8.00
2019-03-29T03:12:20.159Z,8.00
2019-03-29T03:14:48.580Z,8.00
2019-03-29T03:17:19.254Z,7.90
2019-03-29T03:19:47.579Z,8.00
2019-03-29T03:22:16.093Z,7.90
2019-03-29T03:24:44.446Z,8.00
2019-03-29T03:27:12.760Z,8.00
2019-03-29T03:29:41.113Z,8.00
2019-03-29T03:32:09.441Z,8.00
2019-03-29T03:34:37.870Z,8.00
2019-03-29T03:37:06.206Z,8.00
2019-03-29T03:39:34.550Z,8.00
2019-03-29T03:42:02.962Z,8.10
2019-03-29T03:44:31.287Z,8.10
2019-03-29T03:47:02.606Z,8.10
2019-03-29T03:49:31.086Z,8.10
2019-03-29T03:51:59.548Z,8.10
2019-03-29T03:54:27.861Z,8.20
2019-03-29T03:56:57.058Z,8.20
2019-03-29T03:59:27.952Z,8.10
2019-03-29T04:01:56.579Z,8.20
2019-03-29T04:04:24.952Z,8.10
2019-03-29T04:06:53.295Z,8.10
2019-03-29T04:09:21.700Z,8.00
2019-03-29T04:11:50.042Z,8.00
2019-03-29T04:14:18.723Z,7.90
2019-03-29T04:16:47.041Z,7.90
2019-03-29T04:19:15.432Z,7.90
2019-03-29T04:21:43.864Z,7.90
2019-03-29T04:24:12.199Z,7.90
2019-03-29T04:26:40.518Z,7.80
2019-03-29T04:29:08.908Z,7.70
2019-03-29T04:31:37.238Z,7.70
2019-03-29T04:34:05.963Z,7.60
2019-03-29T04:36:34.663Z,7.50
2019-03-29T04:39:05.044Z,7.60
2019-03-29T04:41:33.375Z,7.50
2019-03-29T04:44:01.726Z,7.50
2019-03-29T04:46:30.086Z,7.50
2019-03-29T04:48:58.483Z,7.60
2019-03-29T04:51:26.811Z,7.60
2019-03-29T04:53:55.161Z,7.50
2019-03-29T04:56:23.541Z,7.60
2019-03-29T04:58:51.864Z,7.60
2019-03-29T05:01:20.208Z,7.60
2019-03-29T05:03:48.644Z,7.60
2019-03-29T05:06:17.020Z,7.60
2019-03-29T05:08:45.366Z,7.50
2019-03-29T05:11:13.725Z,7.50
2019-03-29T05:13:42.058Z,7.50
2019-03-29T05:16:10.463Z,7.50
2019-03-29T05:18:38.815Z,7.60
2019-03-29T05:21:07.171Z,7.60
2019-03-29T05:23:35.555Z,7.60
2019-03-29T05:26:03.904Z,7.70
2019-03-29T05:28:32.253Z,7.70
2019-03-29T05:31:00.634Z,7.70
2019-03-29T05:33:29.019Z,7.80
2019-03-29T05:35:57.400Z,7.80
2019-03-29T05:38:25.826Z,7.90
2019-03-29T05:40:54.189Z,7.90
2019-03-29T05:43:22.525Z,7.90
2019-03-29T05:45:50.948Z,8.00
2019-03-29T05:48:19.323Z,8.00
2019-03-29T05:50:47.657Z,8.00
2019-03-29T05:53:16.061Z,8.10
2019-03-29T05:55:44.386Z,8.10
2019-03-29T05:58:12.798Z,8.20
2019-03-29T06:00:41.223Z,8.20
2019-03-29T06:03:11.350Z,8.30
2019-03-29T06:05:39.761Z,8.30
2019-03-29T06:08:08.097Z,8.20
2019-03-29T06:10:48.171Z,8.20
2019-03-29T06:13:07.014Z,8.30
2019-03-29T06:15:35.387Z,8.30
2019-03-29T06:18:03.902Z,8.30
2019-03-29T06:20:32.371Z,8.40
2019-03-29T06:23:00.713Z,8.40
2019-03-29T06:25:29.079Z,8.50
2019-03-29T06:27:57.442Z,8.50
2019-03-29T06:30:29.754Z,8.40
2019-03-29T06:32:58.227Z,8.50
2019-03-29T06:35:28.907Z,8.50
2019-03-29T06:37:57.546Z,8.50
2019-03-29T06:40:27.502Z,8.50
2019-03-29T06:42:55.903Z,8.50
2019-03-29T06:45:24.250Z,8.60
2019-03-29T06:47:52.637Z,8.70
2019-03-29T06:50:21.028Z,8.70
2019-03-29T06:52:49.374Z,8.70
2019-03-29T06:55:17.763Z,8.70
2019-03-29T06:57:46.090Z,8.70
2019-03-29T07:00:14.566Z,8.80
2019-03-29T07:02:42.967Z,8.80
2019-03-29T07:05:11.334Z,8.70
2019-03-29T07:07:40.621Z,8.70
2019-03-29T07:10:09.281Z,8.80
2019-03-29T07:12:37.635Z,8.80
2019-03-29T07:15:06.089Z,8.90
2019-03-29T07:17:34.522Z,8.90
2019-03-29T07:20:03.226Z,9.00
2019-03-29T07:22:34.504Z,9.00
2019-03-29T07:25:01.856Z,9.10
2019-03-29T07:27:38.743Z,9.10
2019-03-29T07:30:00.497Z,9.10
2019-03-29T07:32:29.186Z,9.00
2019-03-29T07:34:57.545Z,8.90
2019-03-29T07:37:25.941Z,9.10
2019-03-29T07:39:54.322Z,9.20
2019-03-29T07:42:22.660Z,9.10
2019-03-29T07:44:51.029Z,9.20
2019-03-29T07:47:19.424Z,9.20
2019-03-29T07:49:47.759Z,9.20
2019-03-29T07:52:16.176Z,9.30
2019-03-29T07:54:44.513Z,9.20
2019-03-29T07:57:12.888Z,9.20
2019-03-29T07:59:41.275Z,9.40
2019-03-29T08:02:09.634Z,9.40
2019-03-29T08:04:37.985Z,9.40
2019-03-29T08:07:06.647Z,9.40
2019-03-29T08:09:35.365Z,9.40
2019-03-29T08:12:03.857Z,9.30
2019-03-29T08:14:32.221Z,9.40
2019-03-29T08:17:00.574Z,9.40
2019-03-29T08:19:28.997Z,9.40
2019-03-29T08:21:58.695Z,9.50
2019-03-29T08:24:27.095Z,9.60
2019-03-29T08:26:57.685Z,9.50
2019-03-29T08:29:26.041Z,9.50
2019-03-29T08:31:55.841Z,9.60
2019-03-29T08:34:24.260Z,9.60
2019-03-29T08:36:52.672Z,9.80
2019-03-29T08:39:28.240Z,9.80
2019-03-29T08:42:00.311Z,9.80
2019-03-29T08:44:24.902Z,9.80
2019-03-29T08:46:53.599Z,9.80
2019-03-29T08:49:21.968Z,9.90
2019-03-29T08:51:50.770Z,9.80
2019-03-29T08:54:19.207Z,9.80
2019-03-29T08:56:47.684Z,9.80
2019-03-29T08:59:17.585Z,9.80
2019-03-29T09:01:46.368Z,9.90
2019-03-29T09:04:14.883Z,9.90
2019-03-29T09:06:53.377Z,9.80
2019-03-29T09:09:13.884Z,9.90
2019-03-29T09:11:42.345Z,9.90
2019-03-29T09:14:10.765Z,10.00
2019-03-29T09:16:39.119Z,10.10
2019-03-29T09:19:07.677Z,10.00
2019-03-29T09:21:36.306Z,10.10
2019-03-29T09:24:04.791Z,10.10
2019-03-29T09:26:33.298Z,10.10
2019-03-29T09:29:01.871Z,10.30
2019-03-29T09:31:30.447Z,10.30
2019-03-29T09:33:58.889Z,10.40
2019-03-29T09:36:27.234Z,10.50
2019-03-29T09:38:56.195Z,10.50
2019-03-29T09:41:24.994Z,10.60
2019-03-29T09:43:54.478Z,10.70
2019-03-29T09:46:25.788Z,10.60
2019-03-29T09:48:54.307Z,10.50
2019-03-29T09:51:22.688Z,10.60
2019-03-29T09:53:51.183Z,10.80
2019-03-29T09:56:19.501Z,10.80
2019-03-29T09:58:47.840Z,10.90
2019-03-29T10:01:16.337Z,10.70
2019-03-29T10:03:44.661Z,10.70
2019-03-29T10:06:15.280Z,10.80
2019-03-29T10:08:43.229Z,10.90
2019-03-29T10:11:11.552Z,10.90
2019-03-29T10:13:39.991Z,10.90
2019-03-29T10:16:08.342Z,11.10
2019-03-29T10:18:36.724Z,11.20
2019-03-29T10:21:05.341Z,11.10
2019-03-29T10:23:33.681Z,11.10
2019-03-29T10:26:02.009Z,11.20
2019-03-29T10:28:30.372Z,11.10
2019-03-29T10:30:58.724Z,11.10
2019-03-29T10:33:27.154Z,11.10
2019-03-29T10:35:55.481Z,11.00
2019-03-29T10:38:23.825Z,11.00
2019-03-29T10:40:52.242Z,11.20
2019-03-29T10:43:20.582Z,11.20
2019-03-29T10:45:49.994Z,11.30
2019-03-29T10:48:18.405Z,11.40
2019-03-29T10:50:46.755Z,11.40
2019-03-29T10:53:15.122Z,11.60
2019-03-29T10:55:43.538Z,11.80
2019-03-29T10:58:11.876Z,11.90
2019-03-29T11:00:40.790Z,12.00
2019-03-29T11:03:09.249Z,12.10
2019-03-29T11:05:37.823Z,12.20
2019-03-29T11:08:11.172Z,12.10
2019-03-29T11:10:41.990Z,12.00
2019-03-29T11:13:14.371Z,12.00
2019-03-29T11:15:40.557Z,11.90
2019-03-29T11:18:08.942Z,12.00
2019-03-29T11:20:37.458Z,12.00
2019-03-29T11:23:05.943Z,12.00
2019-03-29T11:25:34.307Z,12.10
2019-03-29T11:28:02.703Z,12.20
2019-03-29T11:30:41.603Z,12.40
2019-03-29T11:33:01.199Z,12.60
2019-03-29T11:35:29.559Z,12.60
2019-03-29T11:37:57.973Z,12.80
2019-03-29T11:40:26.415Z,12.80
2019-03-29T11:42:54.770Z,12.70
2019-03-29T11:45:23.360Z,12.60
2019-03-29T11:47:51.807Z,12.50
2019-03-29T11:50:20.345Z,12.60
2019-03-29T11:52:48.715Z,12.70
2019-03-29T11:55:17.139Z,12.80
2019-03-29T11:57:45.488Z,13.00
2019-03-29T12:00:16.037Z,12.90
2019-03-29T12:02:44.445Z,12.80
2019-03-29T12:05:12.888Z,12.90
2019-03-29T12:07:41.624Z,13.00
2019-03-29T12:10:10.260Z,13.10
2019-03-29T12:12:38.575Z,13.20
2019-03-29T12:15:08.377Z,13.00
2019-03-29T12:17:53.259Z,13.10
2019-03-29T12:20:21.604Z,12.90
2019-03-29T12:22:49.973Z,12.90
2019-03-29T12:25:18.348Z,12.90
2019-03-29T12:27:46.720Z,12.90
2019-03-29T12:30:30.550Z,12.80
2019-03-29T12:32:45.753Z,12.90
2019-03-29T12:35:14.296Z,12.80
2019-03-29T12:37:42.836Z,12.70
2019-03-29T12:40:11.620Z,12.70
2019-03-29T12:42:40.354Z,12.80
2019-03-29T12:45:10.718Z,12.90
2019-03-29T12:47:39.562Z,12.90
2019-03-29T12:50:08.279Z,12.80
2019-03-29T12:52:36.732Z,12.70
2019-03-29T12:55:05.244Z,12.80
2019-03-29T12:57:33.705Z,12.90
2019-03-29T13:00:02.061Z,12.80
2019-03-29T13:02:30.432Z,12.70
2019-03-29T13:04:58.907Z,12.70
2019-03-29T13:07:27.502Z,12.60
2019-03-29T13:09:55.981Z,12.60
2019-03-29T13:12:24.486Z,12.60
2019-03-29T13:14:52.997Z,12.50
2019-03-29T13:17:21.493Z,12.40
2019-03-29T13:19:53.155Z,12.40
2019-03-29T13:22:21.733Z,12.30
2019-03-29T13:24:50.233Z,12.30
2019-03-29T13:27:18.826Z,12.30
2019-03-29T13:29:47.213Z,12.10
2019-03-29T13:32:18.513Z,12.10
2019-03-29T13:34:47.175Z,12.20
2019-03-29T13:37:15.605Z,12.20
2019-03-29T13:39:44.042Z,12.30
2019-03-29T13:42:12.592Z,12.30
2019-03-29T13:44:41.217Z,12.30
2019-03-29T13:47:09.646Z,12.30
2019-03-29T13:49:38.066Z,12.20
2019-03-29T13:52:06.608Z,12.20
2019-03-29T13:54:35.270Z,12.20
2019-03-29T13:57:04.779Z,12.20
2019-03-29T13:59:33.277Z,12.20
2019-03-29T14:02:01.653Z,12.10
2019-03-29T14:04:30.014Z,12.20
2019-03-29T14:06:58.564Z,12.20
2019-03-29T14:09:29.382Z,12.20
2019-03-29T14:11:57.183Z,12.10
2019-03-29T14:14:37.572Z,12.00
2019-03-29T14:16:55.739Z,12.00
2019-03-29T14:19:25.828Z,12.00
2019-03-29T14:21:54.346Z,12.10
2019-03-29T14:24:22.718Z,12.00
2019-03-29T14:26:51.238Z,11.90
2019-03-29T14:29:19.637Z,11.80
2019-03-29T14:31:47.991Z,11.70
2019-03-29T14:34:16.420Z,11.70
2019-03-29T14:36:44.913Z,11.70
2019-03-29T14:39:13.316Z,11.70
2019-03-29T14:41:41.797Z,11.70
2019-03-29T14:44:10.482Z,11.70
2019-03-29T14:46:39.765Z,11.70
2019-03-29T14:49:08.115Z,11.60
2019-03-29T14:51:36.539Z,11.50
2019-03-29T14:54:04.907Z,11.50
2019-03-29T14:56:33.262Z,11.40
2019-03-29T14:59:01.689Z,11.30
2019-03-29T15:01:32.414Z,11.10
2019-03-29T15:04:00.726Z,11.30
2019-03-29T15:06:29.086Z,11.30
2019-03-29T15:08:57.830Z,11.30
2019-03-29T15:11:26.142Z,11.40
2019-03-29T15:13:54.510Z,11.40
2019-03-29T15:16:24.219Z,11.40
2019-03-29T15:18:52.612Z,11.30
2019-03-29T15:21:20.996Z,11.30
2019-03-29T15:23:50.917Z,11.30
2019-03-29T15:26:19.356Z,11.30
2019-03-29T15:28:47.688Z,11.30
2019-03-29T15:31:16.051Z,11.20
2019-03-29T15:33:44.446Z,11.20
2019-03-29T15:36:31.947Z,11.20
2019-03-29T15:39:00.391Z,11.10
2019-03-29T15:41:28.752Z,11.20
2019-03-29T15:43:57.058Z,11.20
2019-03-29T15:46:25.428Z,11.00
2019-03-29T15:48:53.778Z,11.00
2019-03-29T15:51:22.170Z,11.00
2019-03-29T15:53:50.495Z,10.90
2019-03-29T15:56:18.863Z,10.90
2019-03-29T15:58:47.248Z,10.80
2019-03-29T16:01:15.598Z,10.80
2019-03-29T16:03:43.944Z,10.70
2019-03-29T16:06:12.335Z,10.60
2019-03-29T16:08:40.677Z,10.60
2019-03-29T16:11:09.308Z,10.60
2019-03-29T16:13:38.013Z,10.50
2019-03-29T16:16:06.323Z,10.40
2019-03-29T16:18:34.663Z,10.50
2019-03-29T16:21:03.042Z,10.50
2019-03-29T16:23:31.386Z,10.40
2019-03-29T16:25:59.720Z,10.40
2019-03-29T16:28:28.119Z,10.40
2019-03-29T16:30:56.488Z,10.60
2019-03-29T16:33:24.844Z,10.20
2019-03-29T16:35:53.236Z,10.20
2019-03-29T16:38:21.596Z,10.20
2019-03-29T16:40:52.182Z,10.10
2019-03-29T16:43:20.563Z,10.10
2019-03-29T16:45:48.951Z,10.00
2019-03-29T16:48:17.343Z,10.00
2019-03-29T16:50:45.670Z,9.90
2019-03-29T16:53:14.042Z,9.90
2019-03-29T16:55:42.549Z,9.80
2019-03-29T16:58:10.891Z,9.80
2019-03-29T17:00:41.503Z,9.80
2019-03-29T17:03:09.839Z,9.70
2019-03-29T17:05:38.258Z,9.60
2019-03-29T17:08:06.598Z,9.60
2019-03-29T17:10:34.934Z,9.60
2019-03-29T17:13:03.451Z,9.50
2019-03-29T17:15:34.038Z,9.50
2019-03-29T17:18:02.382Z,9.40
2019-03-29T17:20:31.804Z,9.40
2019-03-29T17:23:00.128Z,9.30
2019-03-29T17:25:28.500Z,9.20
2019-03-29T17:27:56.911Z,9.20
2019-03-29T17:30:36.813Z,9.10
2019-03-29T17:33:05.151Z,9.00
2019-03-29T17:35:33.543Z,9.00
2019-03-29T17:38:01.894Z,8.90
2019-03-29T17:40:30.233Z,8.80
2019-03-29T17:42:58.620Z,8.80
2019-03-29T17:45:26.980Z,8.80
2019-03-29T17:47:55.387Z,8.70
2019-03-29T17:50:25.289Z,8.70
2019-03-29T17:52:53.880Z,8.70
2019-03-29T17:55:22.254Z,8.60
2019-03-29T17:57:50.668Z,8.60
2019-03-29T18:00:21.235Z,8.60
2019-03-29T18:02:49.584Z,8.50
2019-03-29T18:05:17.908Z,8.40
2019-03-29T18:07:46.307Z,8.40
2019-03-29T18:10:14.652Z,8.40
2019-03-29T18:12:42.999Z,8.40
2019-03-29T18:15:11.712Z,8.40
2019-03-29T18:17:40.062Z,8.40
2019-03-29T18:20:08.843Z,8.30
2019-03-29T18:22:37.242Z,8.30
2019-03-29T18:25:05.743Z,8.30
2019-03-29T18:27:34.064Z,8.20
2019-03-29T18:30:02.437Z,8.20
2019-03-29T18:32:32.107Z,8.20
2019-03-29T18:35:00.504Z,8.20
2019-03-29T18:37:28.908Z,8.20
2019-03-29T18:39:57.249Z,8.10
2019-03-29T18:42:25.663Z,8.10
2019-03-29T18:44:54.001Z,8.00
2019-03-29T18:47:22.312Z,8.10
2019-03-29T18:49:50.744Z,8.00
2019-03-29T18:52:20.085Z,8.00
2019-03-29T18:54:48.416Z,8.00
2019-03-29T18:57:16.855Z,8.00
2019-03-29T18:59:45.214Z,8.00
2019-03-29T19:02:13.529Z,8.00
2019-03-29T19:04:41.957Z,7.90
2019-03-29T19:07:10.284Z,7.90
2019-03-29T19:09:38.641Z,7.80
2019-03-29T19:12:07.044Z,7.80
2019-03-29T19:14:35.396Z,7.80
2019-03-29T19:17:03.805Z,7.80
2019-03-29T19:19:32.224Z,7.80
2019-03-29T19:22:00.577Z,7.80
2019-03-29T19:24:28.916Z,7.80
2019-03-29T19:26:58.479Z,7.80
2019-03-29T19:29:26.896Z,7.80
2019-03-29T19:31:56.235Z,7.70
2019-03-29T19:34:24.726Z,7.70
2019-03-29T19:36:53.074Z,7.70
2019-03-29T19:39:21.477Z,7.70
2019-03-29T19:41:49.835Z,7.70
2019-03-29T19:44:18.160Z,7.70
2019-03-29T19:46:46.573Z,7.70
2019-03-29T19:49:14.917Z,7.60
2019-03-29T19:51:43.270Z,7.60
2019-03-29T19:54:11.702Z,7.60
2019-03-29T19:56:40.038Z,7.60
2019-03-29T19:59:08.498Z,7.60
2019-03-29T20:01:36.979Z,7.60
2019-03-29T20:04:05.457Z,7.60
2019-03-29T20:06:33.794Z,7.50
2019-03-29T20:09:02.324Z,7.50
2019-03-29T20:11:30.680Z,7.50
2019-03-29T20:13:59.046Z,7.50
2019-03-29T20:16:27.465Z,7.50
2019-03-29T20:18:55.831Z,7.40
2019-03-29T20:21:24.175Z,7.40
2019-03-29T20:23:52.604Z,7.40
2019-03-29T20:26:20.970Z,7.40
2019-03-29T20:28:49.326Z,7.50
2019-03-29T20:31:17.715Z,7.20
2019-03-29T20:33:46.097Z,7.40
2019-03-29T20:36:22.345Z,7.40
2019-03-29T20:38:44.640Z,7.30
2019-03-29T20:41:13.006Z,7.30
2019-03-29T20:43:41.346Z,7.30
2019-03-29T20:46:09.784Z,7.20
2019-03-29T20:48:38.130Z,7.30
2019-03-29T20:51:06.494Z,7.30
2019-03-29T20:53:34.869Z,7.20
2019-03-29T20:56:06.375Z,7.20
2019-03-29T20:58:33.486Z,7.20
2019-03-29T21:01:01.865Z,7.20
2019-03-29T21:03:30.206Z,7.30
2019-03-29T21:05:58.717Z,7.20
2019-03-29T21:08:27.030Z,7.20
2019-03-29T21:10:56.495Z,7.10
2019-03-29T21:13:25.044Z,7.10
2019-03-29T21:15:53.380Z,7.10
2019-03-29T21:18:21.737Z,7.10
2019-03-29T21:20:50.116Z,7.10
2019-03-29T21:23:18.437Z,7.10
2019-03-29T21:25:46.856Z,7.10
2019-03-29T21:28:15.189Z,7.00
2019-03-29T21:30:45.707Z,7.00
2019-03-29T21:33:14.090Z,7.00
2019-03-29T21:35:42.418Z,7.00
2019-03-29T21:38:10.881Z,7.00
2019-03-29T21:40:39.291Z,7.00
2019-03-29T21:43:07.626Z,7.00
2019-03-29T21:45:35.982Z,6.90
2019-03-29T21:48:26.940Z,7.00
2019-03-29T21:50:34.786Z,6.90
2019-03-29T21:53:03.236Z,6.90
2019-03-29T21:55:31.648Z,7.00
2019-03-29T21:57:59.970Z,6.90
2019-03-29T22:00:28.343Z,6.90
2019-03-29T22:02:56.806Z,6.90
2019-03-29T22:05:25.164Z,7.00
2019-03-29T22:07:53.505Z,6.90
2019-03-29T22:10:21.854Z,7.00
2019-03-29T22:12:50.230Z,6.90
2019-03-29T22:15:18.606Z,7.00
2019-03-29T22:17:47.229Z,6.90
2019-03-29T22:20:15.801Z,6.90
2019-03-29T22:22:44.199Z,6.90
2019-03-29T22:25:12.587Z,6.90
2019-03-29T22:27:40.908Z,6.90
2019-03-29T22:30:10.169Z,6.90
2019-03-29T22:32:38.623Z,6.90
2019-03-29T22:35:07.235Z,6.90
2019-03-29T22:37:35.680Z,6.80
2019-03-29T22:40:04.483Z,6.80
2019-03-29T22:42:32.832Z,6.90
2019-03-29T22:45:01.225Z,6.90
2019-03-29T22:47:29.586Z,6.80
2019-03-29T22:50:00.721Z,6.80
2019-03-29T22:52:29.183Z,6.80
2019-03-29T22:54:57.540Z,6.70
2019-03-29T22:57:25.907Z,6.80
2019-03-29T22:59:54.326Z,6.80
2019-03-29T23:02:23.016Z,6.80
2019-03-29T23:04:51.372Z,6.80
2019-03-29T23:07:19.770Z,6.80
2019-03-29T23:09:48.124Z,6.80
2019-03-29T23:12:16.456Z,6.80
2019-03-29T23:14:44.837Z,6.80
2019-03-29T23:17:13.164Z,6.70
2019-03-29T23:19:41.506Z,6.70
2019-03-29T23:22:09.874Z,6.70
2019-03-29T23:24:38.231Z,6.60
2019-03-29T23:27:06.558Z,6.60
2019-03-29T23:29:34.924Z,6.60
2019-03-29T23:32:03.255Z,6.60
2019-03-29T23:34:31.647Z,6.60
2019-03-29T23:37:00.042Z,6.60
2019-03-29T23:39:28.448Z,6.70
2019-03-29T23:41:56.836Z,6.70
2019-03-29T23:44:25.187Z,6.70
2019-03-29T23:46:53.540Z,6.70
2019-03-29T23:49:21.913Z,6.70
2019-03-29T23:51:50.245Z,6.60
2019-03-29T23:54:18.659Z,6.60
2019-03-29T23:56:47.187Z,6.60
2019-03-29T23:59:15.675Z,6.60
